Time;durP1;ratioP1;P1;durP2;ratioP2;P2;SDS_P1;SDS_P2;PMS_P1;PMS_P2;Temp;Humidity;BMP_temperature;BMP_pressure;BME280_temperature;BME280_humidity;BME280_pressure;Samples;Min_cycle;Max_cycle;Signal;HPM_P1;HPM_P2
2022/09/19 04:03:30;;;;;;;0.55;0.55;;;9.20;99.90;;;;;;6223325;22;20204;-62
2022/09/19 04:05:56;;;;;;;1.63;0.97;;;9.20;99.90;;;;;;6274754;22;20618;-63
2022/09/19 04:08:21;;;;;;;2.60;0.70;;;9.20;99.90;;;;;;6277637;22;20745;-63
2022/09/19 04:10:47;;;;;;;4.60;1.07;;;9.30;99.90;;;;;;6277495;22;20159;-63
2022/09/19 04:13:13;;;;;;;0.50;0.50;;;9.30;99.90;;;;;;6275016;22;20179;-64
2022/09/19 04:15:40;;;;;;;4.13;1.40;;;9.40;99.90;;;;;;6246634;22;20450;-63
2022/09/19 04:18:06;;;;;;;2.30;0.60;;;9.40;99.90;;;;;;6246324;22;20219;-64
2022/09/19 04:20:33;;;;;;;0.80;0.80;;;9.40;99.90;;;;;;6246974;23;20149;-64
2022/09/19 04:23:00;;;;;;;1.85;1.20;;;9.40;99.90;;;;;;6246861;22;20442;-64
2022/09/19 04:25:34;;;;;;;3.05;0.82;;;9.40;99.90;;;;;;6246797;22;20165;-63
2022/09/19 04:28:02;;;;;;;1.48;0.50;;;9.40;99.90;;;;;;6245537;23;20156;-64
2022/09/19 04:30:28;;;;;;;1.20;0.70;;;9.50;99.90;;;;;;6246354;22;20161;-64
2022/09/19 04:32:53;;;;;;;0.80;0.80;;;9.50;99.90;;;;;;6245715;22;20149;-64
2022/09/19 04:35:20;;;;;;;1.00;0.83;;;9.50;99.90;;;;;;6245808;22;20402;-64
2022/09/19 04:37:46;;;;;;;1.05;0.90;;;9.50;99.90;;;;;;6247095;22;20183;-63
2022/09/19 04:40:12;;;;;;;0.63;0.57;;;9.50;99.90;;;;;;6246059;22;20584;-64
2022/09/19 04:42:38;;;;;;;0.85;0.50;;;9.50;99.90;;;;;;6246215;22;20342;-64
2022/09/19 04:45:03;;;;;;;2.10;0.60;;;9.50;99.90;;;;;;6246219;22;20165;-64
2022/09/19 04:47:32;;;;;;;1.73;1.00;;;9.60;99.90;;;;;;6246899;23;20866;-63
2022/09/19 04:49:59;;;;;;;0.60;0.50;;;9.60;99.90;;;;;;6247015;22;20726;-62
2022/09/19 04:52:26;;;;;;;0.95;0.60;;;9.60;99.90;;;;;;6246724;22;20149;-63
2022/09/19 04:54:54;;;;;;;0.70;0.65;;;9.60;99.90;;;;;;6246454;22;20612;-63
2022/09/19 04:57:20;;;;;;;0.93;0.50;;;9.70;99.90;;;;;;6246409;22;20175;-64
2022/09/19 04:59:46;;;;;;;2.03;0.60;;;9.70;99.90;;;;;;6244821;23;20149;-63
2022/09/19 05:02:12;;;;;;;2.80;2.65;;;9.70;99.90;;;;;;6245182;22;20149;-64
2022/09/19 05:04:41;;;;;;;3.22;0.60;;;9.70;99.90;;;;;;6243483;22;20184;-62
2022/09/19 05:07:08;;;;;;;0.88;0.57;;;9.70;99.90;;;;;;6244276;23;20206;-62
2022/09/19 05:09:34;;;;;;;2.28;0.85;;;9.80;99.90;;;;;;6244120;23;20149;-64
2022/09/19 05:11:59;;;;;;;7.87;1.03;;;9.80;99.90;;;;;;6243486;23;20213;-62
2022/09/19 05:14:29;;;;;;;0.73;0.73;;;9.80;99.90;;;;;;6243728;22;20180;-64
2022/09/19 05:16:55;;;;;;;2.25;0.82;;;9.80;99.90;;;;;;6244604;23;20239;-65
2022/09/19 05:19:22;;;;;;;0.50;0.50;;;9.90;99.90;;;;;;6245804;23;20211;-61
2022/09/19 05:21:49;;;;;;;1.98;1.00;;;9.90;99.90;;;;;;6246006;23;20674;-61
2022/09/19 05:24:16;;;;;;;0.43;0.43;;;9.90;99.90;;;;;;6245673;22;20168;-61
2022/09/19 05:26:41;;;;;;;7.60;4.35;;;9.90;99.90;;;;;;6246175;23;20176;-62
2022/09/19 05:29:08;;;;;;;0.53;0.53;;;9.90;99.90;;;;;;6245990;23;20156;-61
2022/09/19 05:31:35;;;;;;;0.65;0.63;;;10.00;99.90;;;;;;6246427;23;20597;-62
2022/09/19 05:34:01;;;;;;;3.78;0.70;;;10.00;99.90;;;;;;6245463;22;20165;-60
2022/09/19 05:36:27;;;;;;;1.20;1.10;;;10.00;99.90;;;;;;6219245;23;20386;-61
2022/09/19 05:38:53;;;;;;;2.67;2.58;;;10.10;99.90;;;;;;6246082;23;20173;-61
2022/09/19 05:41:18;;;;;;;0.90;0.70;;;10.10;99.90;;;;;;6245548;23;20145;-61
2022/09/19 05:43:44;;;;;;;7.40;1.50;;;10.10;99.90;;;;;;6245175;22;20366;-61
2022/09/19 05:46:10;;;;;;;0.40;0.40;;;10.20;99.90;;;;;;6245511;23;20580;-62
2022/09/19 05:48:37;;;;;;;1.40;1.37;;;10.20;99.90;;;;;;6245800;23;20483;-62
2022/09/19 05:51:04;;;;;;;0.75;0.75;;;10.20;99.90;;;;;;6245863;23;20910;-62
2022/09/19 05:56:14;;;;;;;0.98;0.82;;;10.30;99.90;;;;;;6246069;23;20140;-62
2022/09/19 05:58:39;;;;;;;1.17;0.50;;;10.40;99.90;;;;;;6245929;23;20504;-62
2022/09/19 06:01:07;;;;;;;1.00;1.00;;;10.40;99.90;;;;;;6245177;23;20155;-62
2022/09/19 06:03:34;;;;;;;1.80;1.00;;;10.50;99.90;;;;;;6245239;22;20160;-62
2022/09/19 06:06:00;;;;;;;0.85;0.85;;;10.50;99.90;;;;;;6245143;23;20496;-62
2022/09/19 06:08:25;;;;;;;0.88;0.88;;;10.50;99.90;;;;;;6246226;23;20523;-62
2022/09/19 06:10:51;;;;;;;3.13;0.87;;;10.50;99.90;;;;;;6245568;23;20152;-62
2022/09/19 06:13:22;;;;;;;1.02;0.73;;;10.60;99.90;;;;;;6244814;22;20279;-62
2022/09/19 06:15:48;;;;;;;0.80;0.60;;;10.60;99.90;;;;;;6245850;23;20587;-62
2022/09/19 06:18:14;;;;;;;2.75;1.15;;;10.70;99.90;;;;;;6245956;23;20172;-61
2022/09/19 06:20:41;;;;;;;1.83;1.33;;;10.70;99.90;;;;;;6246101;23;20176;-61
2022/09/19 06:23:10;;;;;;;0.80;0.80;;;10.80;99.90;;;;;;6244949;22;20153;-61
2022/09/19 06:25:38;;;;;;;4.68;0.95;;;10.80;99.90;;;;;;6245374;23;20588;-61
2022/09/19 06:28:12;;;;;;;0.90;0.90;;;10.90;99.90;;;;;;6245932;23;20236;-61
2022/09/19 06:30:38;;;;;;;3.40;0.80;;;10.90;99.90;;;;;;6245612;23;20217;-66
2022/09/19 06:33:06;;;;;;;0.85;0.85;;;11.00;99.90;;;;;;6245335;22;20160;-61
2022/09/19 06:35:32;;;;;;;2.40;1.00;;;11.10;99.90;;;;;;6245237;23;20164;-61
2022/09/19 06:38:00;;;;;;;0.80;0.80;;;11.20;99.90;;;;;;6245578;23;20418;-60
2022/09/19 06:40:26;;;;;;;1.50;0.70;;;11.20;99.90;;;;;;6245865;23;20161;-61
2022/09/19 06:43:01;;;;;;;1.43;1.03;;;11.30;99.90;;;;;;6245738;23;20675;-61
2022/09/19 06:45:28;;;;;;;1.47;0.90;;;11.40;99.90;;;;;;6246140;22;20494;-60
2022/09/19 06:47:58;;;;;;;7.20;1.60;;;11.50;99.90;;;;;;6247715;23;20675;-62
2022/09/19 06:50:25;;;;;;;1.65;1.55;;;11.60;99.90;;;;;;6246820;23;20161;-61
2022/09/19 06:52:51;;;;;;;2.00;0.83;;;11.70;99.90;;;;;;6247545;23;20150;-62
2022/09/19 06:55:16;;;;;;;3.53;1.57;;;11.80;99.90;;;;;;6249838;22;20409;-62
2022/09/19 06:57:42;;;;;;;1.90;1.17;;;11.90;99.90;;;;;;6249110;23;20175;-61
2022/09/19 07:00:08;;;;;;;3.70;1.30;;;12.00;99.90;;;;;;6247891;23;20157;-61
2022/09/19 07:02:33;;;;;;;0.70;0.70;;;12.00;99.90;;;;;;6247455;23;20205;-61
2022/09/19 07:04:59;;;;;;;1.80;1.07;;;12.00;99.90;;;;;;6247378;22;20844;-63
2022/09/19 07:07:24;;;;;;;4.17;1.20;;;12.00;99.90;;;;;;6247791;23;20274;-61
2022/09/19 07:09:50;;;;;;;1.20;1.20;;;12.00;99.90;;;;;;6247747;23;20171;-61
2022/09/19 07:12:16;;;;;;;3.87;1.30;;;12.00;99.90;;;;;;6248117;23;20520;-61
2022/09/19 07:14:41;;;;;;;3.30;1.20;;;12.00;99.90;;;;;;6247114;22;20256;-62
2022/09/19 07:17:07;;;;;;;1.23;1.10;;;12.00;99.90;;;;;;6247626;23;20553;-61
2022/09/19 07:19:33;;;;;;;2.27;0.90;;;12.00;99.90;;;;;;6247819;23;20153;-60
2022/09/19 07:21:58;;;;;;;1.70;0.80;;;12.00;99.90;;;;;;6247419;23;20609;-60
2022/09/19 07:24:24;;;;;;;0.93;0.93;;;12.00;99.90;;;;;;6247156;22;20182;-61
2022/09/19 07:26:49;;;;;;;2.47;1.30;;;12.00;99.90;;;;;;6247533;23;20445;-61
2022/09/19 07:29:15;;;;;;;1.50;1.30;;;12.10;99.90;;;;;;6247112;23;20584;-61
2022/09/19 07:31:41;;;;;;;2.67;0.80;;;12.10;99.90;;;;;;6246576;23;20475;-61
2022/09/19 07:34:06;;;;;;;1.70;0.80;;;12.10;99.90;;;;;;6246739;22;20174;-61
2022/09/19 07:36:33;;;;;;;2.10;1.20;;;12.10;99.90;;;;;;6247460;23;20171;-61
2022/09/19 07:38:58;;;;;;;0.90;0.60;;;12.00;99.90;;;;;;6247564;23;20611;-62
2022/09/19 07:41:24;;;;;;;1.00;1.00;;;12.00;99.90;;;;;;6247596;23;20412;-62
2022/09/19 07:43:49;;;;;;;1.27;1.10;;;12.00;99.90;;;;;;6246813;22;20259;-61
2022/09/19 07:46:17;;;;;;;1.33;1.00;;;12.00;99.90;;;;;;6220768;23;20173;-60
2022/09/19 07:48:43;;;;;;;3.90;2.00;;;12.10;99.90;;;;;;6221118;23;20539;-61
2022/09/19 07:51:09;;;;;;;1.90;1.10;;;12.20;99.90;;;;;;6247477;23;20354;-62
2022/09/19 07:53:35;;;;;;;3.17;0.90;;;12.20;99.90;;;;;;6245481;22;20860;-62
2022/09/19 07:56:01;;;;;;;1.50;0.83;;;12.30;99.90;;;;;;6246760;23;20155;-62
2022/09/19 07:58:27;;;;;;;3.40;1.07;;;12.40;99.90;;;;;;6246982;23;20291;-65
2022/09/19 08:00:53;;;;;;;1.87;1.67;;;12.60;99.90;;;;;;6246955;23;20368;-62
2022/09/19 08:03:20;;;;;;;1.27;0.97;;;12.70;99.90;;;;;;6246466;22;20457;-63
2022/09/19 08:05:51;;;;;;;3.73;1.63;;;12.80;99.90;;;;;;6245999;23;20390;-62
2022/09/19 08:08:19;;;;;;;1.27;1.17;;;12.90;99.90;;;;;;6247183;23;20758;-62
2022/09/19 08:10:45;;;;;;;1.50;0.70;;;12.90;99.90;;;;;;6246951;23;20673;-61
2022/09/19 08:13:13;;;;;;;1.47;1.10;;;13.00;99.90;;;;;;6246263;22;20349;-62
2022/09/19 08:15:39;;;;;;;1.37;1.03;;;13.00;99.90;;;;;;6247180;23;20401;-61
2022/09/19 08:18:15;;;;;;;3.77;1.70;;;13.10;99.90;;;;;;6246980;23;20414;-61
2022/09/19 08:20:42;;;;;;;1.77;1.10;;;13.10;99.90;;;;;;6246603;23;20502;-62
2022/09/19 08:23:13;;;;;;;0.90;0.90;;;13.20;99.90;;;;;;6246189;22;20374;-64
2022/09/19 08:25:46;;;;;;;4.10;1.30;;;13.10;99.90;;;;;;6246274;23;20364;-65
2022/09/19 08:28:12;;;;;;;0.97;0.70;;;13.10;99.90;;;;;;6247020;23;20375;-64
2022/09/19 08:30:38;;;;;;;2.30;0.90;;;13.10;99.90;;;;;;6246617;23;20465;-62
2022/09/19 08:33:06;;;;;;;1.83;0.77;;;13.20;99.90;;;;;;6245941;23;20381;-65
2022/09/19 08:35:37;;;;;;;1.90;0.80;;;13.10;99.90;;;;;;6246922;23;20481;-63
2022/09/19 08:38:04;;;;;;;2.20;0.97;;;13.10;99.90;;;;;;6246705;23;20407;-64
2022/09/19 08:40:46;;;;;;;1.90;1.10;;;13.10;99.90;;;;;;6246415;23;20341;-64
2022/09/19 08:43:21;;;;;;;1.23;1.03;;;13.20;99.90;;;;;;6245472;22;20329;-63
2022/09/19 08:46:18;;;;;;;3.63;1.03;;;13.30;99.90;;;;;;6246830;23;20385;-62
2022/09/19 08:48:44;;;;;;;3.17;1.20;;;13.40;99.90;;;;;;6246310;23;20341;-63
2022/09/19 08:51:24;;;;;;;3.30;1.40;;;13.40;99.90;;;;;;6247045;23;20376;-63
2022/09/19 08:53:57;;;;;;;4.30;0.90;;;13.50;99.90;;;;;;6245483;22;20361;-61
2022/09/19 08:56:23;;;;;;;7.43;1.43;;;13.50;99.90;;;;;;6246386;23;20339;-62
2022/09/19 08:59:04;;;;;;;4.73;1.10;;;13.60;99.90;;;;;;6246741;23;20497;-59
2022/09/19 09:01:38;;;;;;;1.20;1.20;;;13.50;99.90;;;;;;6246863;23;20394;-61
2022/09/19 09:04:35;;;;;;;1.00;0.90;;;13.50;99.90;;;;;;6246308;22;20401;-61
2022/09/19 09:07:04;;;;;;;2.53;1.17;;;13.50;99.90;;;;;;6221076;23;20387;-62
2022/09/19 09:09:45;;;;;;;2.13;1.10;;;13.50;99.90;;;;;;6246121;23;20671;-62
2022/09/19 09:12:32;;;;;;;1.30;0.80;;;13.50;99.90;;;;;;6246612;23;20349;-63
2022/09/19 09:15:35;;;;;;;6.23;1.10;;;13.50;99.90;;;;;;6246320;22;20377;-63
2022/09/19 09:18:38;;;;;;;5.83;1.10;;;13.40;99.90;;;;;;6246444;23;20417;-63
2022/09/19 09:21:25;;;;;;;3.23;2.50;;;13.40;99.90;;;;;;6246624;23;20683;-62
2022/09/19 09:24:05;;;;;;;1.90;1.33;;;13.40;99.90;;;;;;6245215;22;20387;-62
2022/09/19 09:26:38;;;;;;;2.93;1.00;;;13.30;99.90;;;;;;6246039;23;20592;-60
2022/09/19 09:29:28;;;;;;;1.90;1.10;;;13.30;99.90;;;;;;6246232;23;20458;-61
2022/09/19 09:32:03;;;;;;;3.43;1.73;;;13.30;99.90;;;;;;6245989;23;20345;-62
2022/09/19 09:34:43;;;;;;;1.50;0.93;;;13.30;99.90;;;;;;6245461;22;20723;-62
2022/09/19 09:37:26;;;;;;;1.33;1.30;;;13.30;99.90;;;;;;6246568;23;20326;-63
2022/09/19 09:40:00;;;;;;;3.77;1.40;;;13.30;99.90;;;;;;6245843;23;20446;-60
2022/09/19 09:42:46;;;;;;;1.87;1.70;;;13.20;99.90;;;;;;6246130;23;20424;-62
2022/09/19 09:45:33;;;;;;;1.40;1.30;;;13.20;99.90;;;;;;6224905;23;20407;-62
2022/09/19 09:48:14;;;;;;;1.73;1.20;;;13.10;99.90;;;;;;6246372;23;20738;-62
2022/09/19 09:50:49;;;;;;;1.40;1.27;;;13.20;99.90;;;;;;6246354;23;20354;-62
2022/09/19 09:53:28;;;;;;;3.80;1.60;;;13.20;99.90;;;;;;6245451;22;20368;-62
2022/09/19 09:56:19;;;;;;;3.40;1.20;;;13.20;99.90;;;;;;6245876;23;20338;-62
2022/09/19 09:58:53;;;;;;;1.13;1.10;;;13.20;99.90;;;;;;6246091;23;20447;-62
2022/09/19 10:04:33;;;;;;;5.10;1.07;;;13.40;99.90;;;;;;6245476;22;20414;-62
2022/09/19 10:07:23;;;;;;;3.27;1.37;;;13.60;99.90;;;;;;6246275;23;20382;-62
2022/09/19 10:09:59;;;;;;;0.80;0.80;;;13.80;99.90;;;;;;6245976;23;20351;-62
2022/09/19 10:12:32;;;;;;;0.93;0.93;;;14.00;99.90;;;;;;6245653;23;20347;-62
2022/09/19 10:15:03;;;;;;;2.87;1.17;;;14.30;99.90;;;;;;6246110;22;20355;-62
2022/09/19 10:17:33;;;;;;;4.77;1.20;;;14.60;99.90;;;;;;6246167;23;20371;-63
2022/09/19 10:20:05;;;;;;;1.77;1.00;;;14.80;99.90;;;;;;6245984;23;20670;-63
2022/09/19 10:22:30;;;;;;;3.37;1.20;;;15.00;99.90;;;;;;6245743;23;20434;-62
2022/09/19 10:24:59;;;;;;;2.63;0.80;;;15.00;99.90;;;;;;6245723;22;20392;-62
2022/09/19 10:27:31;;;;;;;1.17;1.17;;;15.00;99.90;;;;;;6246486;23;20147;-62
2022/09/19 10:30:15;;;;;;;5.10;1.00;;;15.10;99.90;;;;;;6248060;23;20388;-62
2022/09/19 10:32:41;;;;;;;4.40;1.10;;;15.20;99.90;;;;;;6220572;23;20347;-62
2022/09/19 10:35:36;;;;;;;2.90;1.50;;;15.20;99.90;;;;;;6247265;22;20454;-63
2022/09/19 10:38:18;;;;;;;1.77;1.30;;;15.30;99.90;;;;;;6220757;23;20185;-63
2022/09/19 10:40:56;;;;;;;4.73;1.60;;;15.40;99.90;;;;;;6247539;23;20336;-64
2022/09/19 10:43:23;;;;;;;0.97;0.97;;;15.60;99.90;;;;;;6247246;22;20356;-63
2022/09/19 10:45:49;;;;;;;1.90;1.00;;;15.70;99.90;;;;;;6247347;23;20368;-65
2022/09/19 10:48:31;;;;;;;1.80;1.00;;;16.00;99.90;;;;;;6247864;23;20899;-68
2022/09/19 10:51:02;;;;;;;3.80;1.10;;;16.20;99.90;;;;;;6247816;23;20166;-64
2022/09/19 10:53:32;;;;;;;2.20;1.00;;;16.20;99.90;;;;;;6247292;22;20452;-61
2022/09/19 10:56:04;;;;;;;2.00;1.30;;;16.40;99.90;;;;;;6247329;23;20382;-63
2022/09/19 10:58:37;;;;;;;2.40;1.03;;;16.70;99.90;;;;;;6247575;23;20860;-63
2022/09/19 11:01:07;;;;;;;1.63;1.10;;;16.90;99.90;;;;;;6247907;23;20364;-63
2022/09/19 11:03:35;;;;;;;0.87;0.80;;;17.10;99.90;;;;;;6247511;22;20392;-61
2022/09/19 11:06:10;;;;;;;2.27;1.03;;;17.40;99.90;;;;;;6247395;23;20859;-62
2022/09/19 11:08:42;;;;;;;5.23;1.47;;;17.70;99.90;;;;;;6247493;23;20835;-64
2022/09/19 11:11:36;;;;;;;2.43;1.83;;;17.70;99.90;;;;;;6247846;23;20351;-64
2022/09/19 11:14:12;;;;;;;1.40;1.10;;;17.50;99.80;;;;;;6247311;22;20652;-62
2022/09/19 11:17:08;;;;;;;3.60;2.10;;;17.30;99.60;;;;;;6247832;23;20444;-63
2022/09/19 11:19:36;;;;;;;3.67;1.40;;;17.10;99.90;;;;;;6247516;23;20435;-65
2022/09/19 11:22:33;;;;;;;1.80;0.93;;;16.90;99.90;;;;;;6220538;23;20461;-63
2022/09/19 11:25:25;;;;;;;2.00;1.00;;;16.70;99.90;;;;;;6225396;22;20374;-64
2022/09/19 11:27:57;;;;;;;1.00;0.90;;;16.70;99.90;;;;;;6247643;23;20362;-65
2022/09/19 11:30:26;;;;;;;0.80;0.80;;;16.70;99.90;;;;;;6247393;23;20699;-64
2022/09/19 11:33:38;;;;;;;1.13;1.00;;;16.60;99.90;;;;;;6246856;23;20342;-64
2022/09/19 11:36:25;;;;;;;1.53;1.17;;;16.70;99.90;;;;;;6125441;23;20376;-62
2022/09/19 11:39:02;;;;;;;3.57;0.97;;;17.00;99.90;;;;;;6081636;23;20405;-62
2022/09/19 11:42:06;;;;;;;1.93;0.90;;;17.20;99.90;;;;;;6216621;23;20846;-65
2022/09/19 11:44:50;;;;;;;2.07;0.80;;;17.50;99.90;;;;;;6220754;22;20404;-63
2022/09/19 11:47:46;;;;;;;2.97;0.87;;;17.70;99.70;;;;;;6247143;23;20337;-64
2022/09/19 11:50:40;;;;;;;1.00;0.90;;;17.80;99.20;;;;;;6246972;23;20379;-63
2022/09/19 11:53:29;;;;;;;4.70;1.30;;;17.90;99.40;;;;;;6247424;22;20355;-65
2022/09/19 11:56:23;;;;;;;0.90;0.90;;;17.80;99.30;;;;;;6246808;23;20366;-64
2022/09/19 11:58:58;;;;;;;1.10;0.63;;;17.80;99.90;;;;;;6247210;23;20406;-63
2022/09/19 12:01:26;;;;;;;1.80;0.80;;;17.80;99.90;;;;;;6247478;23;20440;-65
2022/09/19 12:04:18;;;;;;;1.70;0.87;;;17.90;99.30;;;;;;6246674;22;20362;-63
2022/09/19 12:06:49;;;;;;;2.50;0.70;;;17.90;99.10;;;;;;6247383;23;20451;-65
2022/09/19 12:09:43;;;;;;;1.70;1.37;;;17.70;99.20;;;;;;6246879;23;20820;-62
2022/09/19 12:12:13;;;;;;;1.00;0.80;;;17.70;99.60;;;;;;6246910;23;20334;-64
2022/09/19 12:14:55;;;;;;;2.20;0.80;;;17.60;99.40;;;;;;6246309;22;20377;-65
2022/09/19 12:17:32;;;;;;;0.80;0.80;;;17.70;99.70;;;;;;6221132;23;20405;-63
2022/09/19 12:20:03;;;;;;;1.33;0.73;;;17.70;99.60;;;;;;6247108;23;20356;-68
2022/09/19 12:22:31;;;;;;;0.63;0.57;;;17.80;99.50;;;;;;6246484;23;20331;-66
2022/09/19 12:25:20;;;;;;;0.77;0.77;;;17.90;99.30;;;;;;6246695;22;20408;-66
2022/09/19 12:28:10;;;;;;;1.30;1.27;;;17.80;99.00;;;;;;6242848;23;20384;-68
2022/09/19 12:30:41;;;;;;;1.47;1.00;;;17.80;98.90;;;;;;6246910;23;20810;-68
2022/09/19 12:33:32;;;;;;;0.93;0.70;;;17.70;99.10;;;;;;6246474;22;20354;-71
2022/09/19 12:36:20;;;;;;;1.67;1.00;;;17.90;99.30;;;;;;6246294;23;20360;-62
2022/09/19 12:39:27;;;;;;;1.30;1.00;;;17.90;99.70;;;;;;6246688;23;20390;-63
2022/09/19 12:42:16;;;;;;;2.40;0.80;;;18.00;98.70;;;;;;6246964;23;20681;-63
2022/09/19 12:45:04;;;;;;;1.07;0.70;;;18.10;98.60;;;;;;6246221;22;20387;-63
2022/09/19 12:47:55;;;;;;;2.40;0.73;;;18.10;99.00;;;;;;6246636;23;20384;-63
2022/09/19 12:50:28;;;;;;;1.90;0.93;;;18.20;98.80;;;;;;6246392;23;20368;-64
2022/09/19 12:53:31;;;;;;;2.33;1.17;;;18.30;98.50;;;;;;6219025;23;20358;-62
2022/09/19 12:56:26;;;;;;;1.90;0.93;;;18.50;98.20;;;;;;6246568;23;20359;-61
2022/09/19 12:59:06;;;;;;;2.63;0.80;;;18.50;98.10;;;;;;6246759;23;20417;-62
2022/09/19 13:01:40;;;;;;;2.07;0.90;;;18.50;97.90;;;;;;6246364;23;20352;-65
2022/09/19 13:04:09;;;;;;;0.77;0.70;;;18.30;98.00;;;;;;6245842;22;20473;-60
2022/09/19 13:06:42;;;;;;;0.70;0.70;;;18.10;97.60;;;;;;6246470;23;20392;-63
2022/09/19 13:09:12;;;;;;;3.50;1.00;;;18.00;97.60;;;;;;6246408;23;20354;-70
2022/09/19 13:11:59;;;;;;;3.50;1.30;;;18.00;98.10;;;;;;6246271;23;20346;-74
2022/09/19 13:14:33;;;;;;;2.23;0.80;;;17.90;97.80;;;;;;6245994;22;20676;-72
2022/09/19 13:25:27;;;;;;;1.70;0.80;;;17.90;99.80;;;;;;6246299;22;20354;-74
2022/09/19 13:28:18;;;;;;;0.67;0.60;;;18.20;98.40;;;;;;6246127;23;20368;-71
2022/09/19 13:30:50;;;;;;;0.93;0.80;;;18.50;97.20;;;;;;6219061;23;20362;-75
2022/09/19 13:33:27;;;;;;;1.17;1.00;;;18.50;97.30;;;;;;6245323;22;20368;-74
2022/09/19 13:35:59;;;;;;;0.70;0.70;;;18.70;97.00;;;;;;6246001;23;20327;-74
2022/09/19 13:38:38;;;;;;;1.30;1.00;;;18.80;96.30;;;;;;6246082;23;20386;-74
2022/09/19 13:41:18;;;;;;;0.73;0.73;;;18.90;96.00;;;;;;6246166;23;20387;-74
2022/09/19 13:44:00;;;;;;;0.67;0.67;;;18.90;96.10;;;;;;6244893;22;20899;-76
2022/09/19 13:46:47;;;;;;;0.97;0.60;;;18.90;95.20;;;;;;6244736;23;20338;-73
2022/09/19 13:49:41;;;;;;;0.57;0.57;;;18.80;95.60;;;;;;6245175;23;20335;-74
2022/09/19 13:52:26;;;;;;;0.87;0.60;;;18.50;95.70;;;;;;6200174;23;20461;-73
2022/09/19 13:54:54;;;;;;;0.60;0.60;;;18.30;95.90;;;;;;6217922;23;20696;-74
2022/09/19 13:57:25;;;;;;;1.80;0.90;;;18.10;96.60;;;;;;6245329;23;20342;-73
2022/09/19 14:00:08;;;;;;;0.70;0.70;;;18.00;96.50;;;;;;6246775;23;20494;-74
2022/09/19 14:02:41;;;;;;;1.00;1.00;;;17.90;96.90;;;;;;6245913;23;20353;-74
2022/09/19 14:05:19;;;;;;;0.97;0.60;;;17.70;96.90;;;;;;6230832;23;20425;-72
2022/09/19 14:07:54;;;;;;;2.63;0.90;;;17.60;96.90;;;;;;6247012;22;20357;-75
2022/09/19 14:10:29;;;;;;;1.37;1.27;;;17.50;97.00;;;;;;6246464;23;20717;-75
2022/09/19 14:13:00;;;;;;;1.10;0.70;;;17.40;97.30;;;;;;6246757;23;20683;-76
2022/09/19 14:15:54;;;;;;;14.77;1.13;;;17.30;98.20;;;;;;6246890;22;20387;-75
2022/09/19 14:18:48;;;;;;;0.83;0.70;;;17.00;98.10;;;;;;6245907;22;20449;-74
2022/09/19 14:21:34;;;;;;;0.50;0.50;;;16.70;98.00;;;;;;6245697;22;20757;-73
2022/09/19 14:24:41;;;;;;;1.00;0.97;;;16.50;98.50;;;;;;6245467;22;20388;-74
2022/09/19 14:27:41;;;;;;;2.50;0.80;;;16.30;99.90;;;;;;6123307;23;20387;-74
2022/09/19 14:30:26;;;;;;;0.70;0.43;;;15.70;99.90;;;;;;6123778;23;20382;-75
2022/09/19 14:33:21;;;;;;;3.33;0.90;;;15.10;99.90;;;;;;6099092;23;20831;-74
2022/09/19 14:35:51;;;;;;;1.03;0.60;;;14.50;99.90;;;;;;6123648;23;20334;-71
2022/09/19 14:38:19;;;;;;;0.50;0.50;;;14.00;99.90;;;;;;6075475;23;20438;-72
2022/09/19 14:41:02;;;;;;;0.83;0.83;;;13.70;99.90;;;;;;6123682;23;20686;-72
2022/09/19 14:44:04;;;;;;;0.80;0.60;;;13.50;99.90;;;;;;6123084;23;20369;-72
2022/09/19 14:46:37;;;;;;;0.40;0.40;;;13.30;99.90;;;;;;6098960;23;20357;-71
2022/09/19 14:49:20;;;;;;;0.77;0.50;;;13.20;99.90;;;;;;6123455;23;20352;-72
2022/09/19 14:51:58;;;;;;;0.70;0.63;;;13.10;99.90;;;;;;6123854;23;20409;-74
2022/09/19 14:54:47;;;;;;;2.23;1.67;;;13.10;99.90;;;;;;6123263;23;20409;-73
2022/09/19 14:57:20;;;;;;;1.17;1.00;;;13.10;99.90;;;;;;6128701;23;20831;-73
2022/09/19 14:59:46;;;;;;;1.00;1.00;;;13.20;99.90;;;;;;6244315;23;20375;-73
2022/09/19 15:02:32;;;;;;;1.00;1.00;;;13.20;99.90;;;;;;6245543;22;20841;-75
2022/09/19 15:05:32;;;;;;;1.03;1.00;;;13.30;99.90;;;;;;6245453;22;20769;-71
2022/09/19 15:08:32;;;;;;;0.87;0.87;;;13.40;99.90;;;;;;6236119;23;20410;-66
2022/09/19 15:11:04;;;;;;;0.80;0.80;;;13.50;99.90;;;;;;6245169;23;20477;-65
2022/09/19 15:13:33;;;;;;;1.23;1.10;;;13.50;99.90;;;;;;6218202;23;20373;-62
2022/09/19 15:16:06;;;;;;;0.70;0.63;;;13.50;99.90;;;;;;6247548;23;20349;-63
2022/09/19 15:18:44;;;;;;;1.17;0.80;;;13.50;99.90;;;;;;6220463;23;21021;-62
2022/09/19 15:21:15;;;;;;;1.00;0.90;;;13.40;99.90;;;;;;6247108;23;20346;-63
2022/09/19 15:23:43;;;;;;;1.07;1.00;;;13.40;99.90;;;;;;6247088;22;20386;-61
2022/09/19 15:26:14;;;;;;;1.20;0.90;;;13.40;99.90;;;;;;6247139;23;20429;-63
2022/09/19 15:28:40;;;;;;;2.87;1.30;;;13.50;99.90;;;;;;6247188;23;20349;-60
2022/09/19 15:31:11;;;;;;;0.80;0.80;;;13.50;99.90;;;;;;6247598;23;20712;-62
2022/09/19 15:33:38;;;;;;;2.60;1.27;;;13.50;99.90;;;;;;6247207;22;20394;-62
2022/09/19 15:36:06;;;;;;;1.17;1.07;;;13.50;99.90;;;;;;6247323;23;20446;-64
2022/09/19 15:38:34;;;;;;;1.40;1.30;;;13.40;99.90;;;;;;6247016;23;20451;-60
2022/09/19 15:41:03;;;;;;;1.00;1.00;;;13.40;99.90;;;;;;6247329;23;20376;-62
2022/09/19 15:43:31;;;;;;;1.80;1.70;;;13.40;99.90;;;;;;6246932;22;20357;-61
2022/09/19 15:46:36;;;;;;;3.60;2.83;;;13.30;99.90;;;;;;6247502;23;20695;-61
2022/09/19 15:49:05;;;;;;;3.30;2.00;;;13.20;99.90;;;;;;6246532;23;20383;-66
2022/09/19 15:51:55;;;;;;;2.70;1.90;;;13.30;99.90;;;;;;6246825;23;20384;-61
2022/09/19 15:54:26;;;;;;;3.67;1.57;;;13.30;99.90;;;;;;6191570;22;20871;-63
2022/09/19 15:56:54;;;;;;;1.10;1.03;;;13.40;99.90;;;;;;6246643;23;20790;-60
2022/09/19 15:59:22;;;;;;;1.83;1.40;;;13.50;99.90;;;;;;6246717;23;20388;-63
2022/09/19 16:01:52;;;;;;;1.40;1.10;;;13.50;99.90;;;;;;6247485;23;20433;-62
2022/09/19 16:04:20;;;;;;;1.53;1.30;;;13.70;99.90;;;;;;6246334;22;20392;-61
2022/09/19 16:09:38;;;;;;;1.13;0.90;;;13.70;99.90;;;;;;6246837;23;20362;-68
2022/09/19 16:12:33;;;;;;;1.30;1.30;;;13.70;99.90;;;;;;6219944;23;20357;-66
2022/09/19 16:15:24;;;;;;;4.67;3.80;;;13.70;99.90;;;;;;6246703;22;20894;-63
2022/09/19 16:17:53;;;;;;;1.73;1.63;;;13.70;99.90;;;;;;6225377;23;20419;-63
2022/09/19 16:20:31;;;;;;;1.90;1.33;;;13.60;99.90;;;;;;6246718;23;20354;-63
2022/09/19 16:23:04;;;;;;;5.20;4.20;;;13.60;99.90;;;;;;6246178;23;20373;-61
2022/09/19 16:25:46;;;;;;;1.70;1.60;;;13.50;99.90;;;;;;6247152;23;20421;-75
2022/09/19 16:28:14;;;;;;;1.67;1.10;;;13.40;99.90;;;;;;6247585;23;20447;-74
2022/09/19 16:30:53;;;;;;;2.20;1.77;;;13.30;99.90;;;;;;6246456;23;20372;-66
2022/09/19 16:33:19;;;;;;;2.63;1.40;;;13.20;99.90;;;;;;6245952;22;20371;-67
2022/09/19 16:35:53;;;;;;;0.87;0.87;;;13.10;99.90;;;;;;6246554;23;20695;-72
2022/09/19 16:38:26;;;;;;;1.03;1.03;;;13.10;99.90;;;;;;6246443;23;20550;-68
2022/09/19 16:40:57;;;;;;;1.40;1.30;;;13.00;99.90;;;;;;6246935;23;20371;-66
2022/09/19 16:43:41;;;;;;;1.30;1.20;;;12.90;99.90;;;;;;6246602;22;20389;-69
2022/09/19 16:46:10;;;;;;;0.77;0.70;;;12.90;99.90;;;;;;6246621;23;20397;-67
2022/09/19 16:48:36;;;;;;;1.40;1.30;;;12.80;99.90;;;;;;6247104;23;20382;-66
2022/09/19 16:51:02;;;;;;;3.80;2.17;;;12.80;99.90;;;;;;6246865;23;20370;-70
2022/09/19 16:53:27;;;;;;;4.00;2.20;;;12.80;99.90;;;;;;6245755;22;20171;-71
2022/09/19 16:55:53;;;;;;;1.83;0.80;;;12.80;99.90;;;;;;6246737;23;20385;-67
2022/09/19 16:58:21;;;;;;;1.60;1.50;;;12.70;99.90;;;;;;6246466;23;20196;-67
2022/09/19 17:00:46;;;;;;;1.70;1.60;;;12.70;99.90;;;;;;6247154;23;20218;-66
2022/09/19 17:03:14;;;;;;;2.90;1.60;;;12.70;99.90;;;;;;6248508;22;20844;-64
2022/09/19 17:05:40;;;;;;;3.78;2.13;;;12.60;99.90;;;;;;6253528;23;20165;-66
2022/09/19 17:08:06;;;;;;;5.50;1.83;;;12.60;99.90;;;;;;6252277;23;20159;-61
2022/09/19 17:10:33;;;;;;;3.20;1.73;;;12.60;99.90;;;;;;6250875;23;20402;-62
2022/09/19 17:12:59;;;;;;;2.77;2.57;;;12.60;99.90;;;;;;6249151;23;20377;-65
2022/09/19 17:15:40;;;;;;;1.80;1.57;;;12.60;99.90;;;;;;6246886;22;20836;-67
2022/09/19 17:18:05;;;;;;;1.43;1.33;;;12.60;99.90;;;;;;6247924;23;20186;-63
2022/09/19 17:20:32;;;;;;;1.83;1.73;;;12.60;99.90;;;;;;6245958;23;20370;-66
2022/09/19 17:23:02;;;;;;;1.87;1.40;;;12.50;99.90;;;;;;6245847;23;20158;-65
2022/09/19 17:25:50;;;;;;;1.73;1.60;;;12.50;99.90;;;;;;6246240;22;20473;-63
2022/09/19 17:28:16;;;;;;;1.57;1.47;;;12.50;99.90;;;;;;6246790;23;20135;-66
2022/09/19 17:30:47;;;;;;;6.27;2.73;;;12.50;99.90;;;;;;6247237;23;20407;-63
2022/09/19 17:33:15;;;;;;;2.30;1.77;;;12.40;99.90;;;;;;6245887;22;20350;-64
2022/09/19 17:35:41;;;;;;;5.23;1.80;;;12.40;99.90;;;;;;6245649;23;20829;-66
2022/09/19 17:38:07;;;;;;;1.67;1.57;;;12.40;99.90;;;;;;6245665;23;20403;-64
2022/09/19 17:40:35;;;;;;;2.83;1.70;;;12.40;99.90;;;;;;6245989;23;20376;-65
2022/09/19 17:43:07;;;;;;;1.83;1.60;;;12.30;99.90;;;;;;6245480;23;20377;-65